Boyce, Louisiana
Current Conditions -  °F | °C
As of 3:53 AM on Monday 22 Dec 2014 (Local Time) from KAEX Reporting Station
Haze Haze  
Wind Chill: 50°   Ceiling: 300
Heat Index: 50°   Visibility: 1.2mi
Dew Point: 50°   Wind: 6mph
Humidity: 100%   Direction: 150°SSE
Pressure: 29.83"   Gusts: NA
Location:  31.39°N, 92.67°W
Report Text: KAEX 220953Z 15005KT 1 1/4SM BR OVC003 10/10 A2983 RMK AO2 SLP105 T01000100
Loading
Personal Weather Stations






























Interactive Weather Map New forecast layout! Learn more

10-Day Weather Forecast

Advertisements
Track Severe Weather on mobile